sensor_id;sensor_type;location;lat;lon;timestamp;temperature;humidity
10294;DHT22;5192;50.328;7.610;2022-10-17T00:00:52;14.10;99.90
10294;DHT22;5192;50.328;7.610;2022-10-17T00:03:19;14.00;99.90
10294;DHT22;5192;50.328;7.610;2022-10-17T00:05:47;14.00;99.90
10294;DHT22;5192;50.328;7.610;2022-10-17T00:08:16;14.10;99.90
10294;DHT22;5192;50.328;7.610;2022-10-17T00:10:42;14.00;99.90
10294;DHT22;5192;50.328;7.610;2022-10-17T00:13:10;13.90;99.90
10294;DHT22;5192;50.328;7.610;2022-10-17T00:15:36;13.90;99.90
10294;DHT22;5192;50.328;7.610;2022-10-17T00:18:03;13.90;99.90
10294;DHT22;5192;50.328;7.610;2022-10-17T00:20:29;14.00;99.90
10294;DHT22;5192;50.328;7.610;2022-10-17T00:22:56;13.90;99.90
10294;DHT22;5192;50.328;7.610;2022-10-17T00:25:23;13.90;99.90
10294;DHT22;5192;50.328;7.610;2022-10-17T00:27:50;13.90;99.90
10294;DHT22;5192;50.328;7.610;2022-10-17T00:30:16;13.90;99.90
10294;DHT22;5192;50.328;7.610;2022-10-17T00:32:42;13.90;99.90
10294;DHT22;5192;50.328;7.610;2022-10-17T00:35:09;13.90;99.90
10294;DHT22;5192;50.328;7.610;2022-10-17T00:37:36;13.80;99.90
10294;DHT22;5192;50.328;7.610;2022-10-17T00:40:04;13.80;99.90
10294;DHT22;5192;50.328;7.610;2022-10-17T00:42:31;13.80;99.90
10294;DHT22;5192;50.328;7.610;2022-10-17T00:45:23;13.70;99.90
10294;DHT22;5192;50.328;7.610;2022-10-17T00:48:03;13.70;99.90
10294;DHT22;5192;50.328;7.610;2022-10-17T00:50:30;13.70;99.90
10294;DHT22;5192;50.328;7.610;2022-10-17T00:53:03;13.80;99.90
10294;DHT22;5192;50.328;7.610;2022-10-17T00:55:31;13.80;99.90
10294;DHT22;5192;50.328;7.610;2022-10-17T00:58:03;13.70;99.90
10294;DHT22;5192;50.328;7.610;2022-10-17T01:00:30;13.70;99.90
10294;DHT22;5192;50.328;7.610;2022-10-17T01:02:56;13.70;99.90
10294;DHT22;5192;50.328;7.610;2022-10-17T01:05:22;13.60;99.90
10294;DHT22;5192;50.328;7.610;2022-10-17T01:07:49;13.60;99.90
10294;DHT22;5192;50.328;7.610;2022-10-17T01:10:23;13.60;99.90
10294;DHT22;5192;50.328;7.610;2022-10-17T01:18:44;13.70;99.90
10294;DHT22;5192;50.328;7.610;2022-10-17T01:27:09;13.70;99.90
10294;DHT22;5192;50.328;7.610;2022-10-17T01:32:53;13.70;99.90
10294;DHT22;5192;50.328;7.610;2022-10-17T01:35:47;13.70;99.90
10294;DHT22;5192;50.328;7.610;2022-10-17T01:38:35;13.70;99.90
10294;DHT22;5192;50.328;7.610;2022-10-17T01:41:11;13.80;99.90
10294;DHT22;5192;50.328;7.610;2022-10-17T01:43:58;13.70;99.90
10294;DHT22;5192;50.328;7.610;2022-10-17T01:46:38;13.70;99.90
10294;DHT22;5192;50.328;7.610;2022-10-17T01:49:08;13.60;99.90
10294;DHT22;5192;50.328;7.610;2022-10-17T01:51:46;13.60;99.90
10294;DHT22;5192;50.328;7.610;2022-10-17T01:54:22;13.60;99.90
10294;DHT22;5192;50.328;7.610;2022-10-17T01:56:52;13.60;99.90
10294;DHT22;5192;50.328;7.610;2022-10-17T01:59:23;13.60;99.90
10294;DHT22;5192;50.328;7.610;2022-10-17T02:01:52;13.70;99.90
10294;DHT22;5192;50.328;7.610;2022-10-17T02:04:18;13.70;99.90
10294;DHT22;5192;50.328;7.610;2022-10-17T02:06:44;13.70;99.90
10294;DHT22;5192;50.328;7.610;2022-10-17T02:09:28;13.60;99.90
10294;DHT22;5192;50.328;7.610;2022-10-17T02:12:26;13.60;99.90
10294;DHT22;5192;50.328;7.610;2022-10-17T02:15:32;13.60;99.90
10294;DHT22;5192;50.328;7.610;2022-10-17T02:21:10;13.60;99.90
10294;DHT22;5192;50.328;7.610;2022-10-17T02:26:55;13.50;99.90
10294;DHT22;5192;50.328;7.610;2022-10-17T02:29:43;13.50;99.90
10294;DHT22;5192;50.328;7.610;2022-10-17T02:32:20;13.50;99.90
10294;DHT22;5192;50.328;7.610;2022-10-17T02:34:55;13.50;99.90
10294;DHT22;5192;50.328;7.610;2022-10-17T02:37:33;13.40;99.90
10294;DHT22;5192;50.328;7.610;2022-10-17T02:40:01;13.50;99.90
10294;DHT22;5192;50.328;7.610;2022-10-17T02:42:32;13.40;99.90
10294;DHT22;5192;50.328;7.610;2022-10-17T02:44:59;13.50;99.90
10294;DHT22;5192;50.328;7.610;2022-10-17T02:47:38;13.40;99.90
10294;DHT22;5192;50.328;7.610;2022-10-17T02:50:09;13.50;99.90
10294;DHT22;5192;50.328;7.610;2022-10-17T02:52:58;13.50;99.90
10294;DHT22;5192;50.328;7.610;2022-10-17T02:55:35;13.40;99.90
10294;DHT22;5192;50.328;7.610;2022-10-17T02:58:26;13.40;99.90
10294;DHT22;5192;50.328;7.610;2022-10-17T03:00:53;13.40;99.90
10294;DHT22;5192;50.328;7.610;2022-10-17T03:03:30;13.40;99.90
10294;DHT22;5192;50.328;7.610;2022-10-17T03:05:57;13.40;99.90
10294;DHT22;5192;50.328;7.610;2022-10-17T03:08:25;13.30;99.90
10294;DHT22;5192;50.328;7.610;2022-10-17T03:10:52;13.30;99.90
10294;DHT22;5192;50.328;7.610;2022-10-17T03:13:19;13.30;99.90
10294;DHT22;5192;50.328;7.610;2022-10-17T03:15:46;13.30;99.90
10294;DHT22;5192;50.328;7.610;2022-10-17T03:18:12;13.30;99.90
10294;DHT22;5192;50.328;7.610;2022-10-17T03:20:39;13.30;99.90
10294;DHT22;5192;50.328;7.610;2022-10-17T03:23:04;13.20;99.90
10294;DHT22;5192;50.328;7.610;2022-10-17T03:25:31;13.20;99.90
10294;DHT22;5192;50.328;7.610;2022-10-17T03:27:58;13.20;99.90
10294;DHT22;5192;50.328;7.610;2022-10-17T03:30:25;13.30;99.90
10294;DHT22;5192;50.328;7.610;2022-10-17T03:32:52;13.30;99.90
10294;DHT22;5192;50.328;7.610;2022-10-17T03:35:17;13.30;99.90
10294;DHT22;5192;50.328;7.610;2022-10-17T03:37:44;13.30;99.90
10294;DHT22;5192;50.328;7.610;2022-10-17T03:40:11;13.30;99.90
10294;DHT22;5192;50.328;7.610;2022-10-17T03:42:37;13.40;99.90
10294;DHT22;5192;50.328;7.610;2022-10-17T03:45:03;13.30;99.90
10294;DHT22;5192;50.328;7.610;2022-10-17T03:47:30;13.30;99.90
10294;DHT22;5192;50.328;7.610;2022-10-17T03:49:55;13.30;99.90
10294;DHT22;5192;50.328;7.610;2022-10-17T03:52:22;13.30;99.90
10294;DHT22;5192;50.328;7.610;2022-10-17T03:54:49;13.20;99.90
10294;DHT22;5192;50.328;7.610;2022-10-17T03:57:17;13.20;99.90
10294;DHT22;5192;50.328;7.610;2022-10-17T03:59:44;13.20;99.90
10294;DHT22;5192;50.328;7.610;2022-10-17T04:02:11;13.20;99.90
10294;DHT22;5192;50.328;7.610;2022-10-17T04:04:37;13.20;99.90
10294;DHT22;5192;50.328;7.610;2022-10-17T04:07:04;13.20;99.90
10294;DHT22;5192;50.328;7.610;2022-10-17T04:09:32;13.20;99.90
10294;DHT22;5192;50.328;7.610;2022-10-17T04:11:59;13.10;99.90
10294;DHT22;5192;50.328;7.610;2022-10-17T04:14:24;13.10;99.90
10294;DHT22;5192;50.328;7.610;2022-10-17T04:16:51;13.10;99.90
10294;DHT22;5192;50.328;7.610;2022-10-17T04:19:17;13.10;99.90
10294;DHT22;5192;50.328;7.610;2022-10-17T04:21:44;13.10;99.90
10294;DHT22;5192;50.328;7.610;2022-10-17T04:24:12;13.10;99.90
10294;DHT22;5192;50.328;7.610;2022-10-17T04:26:40;13.20;99.90
10294;DHT22;5192;50.328;7.610;2022-10-17T04:29:05;13.20;99.90
10294;DHT22;5192;50.328;7.610;2022-10-17T04:31:33;13.20;99.90
10294;DHT22;5192;50.328;7.610;2022-10-17T04:34:00;13.20;99.90
10294;DHT22;5192;50.328;7.610;2022-10-17T04:36:26;13.20;99.90
10294;DHT22;5192;50.328;7.610;2022-10-17T04:38:52;13.10;99.90
10294;DHT22;5192;50.328;7.610;2022-10-17T04:41:19;13.10;99.90
10294;DHT22;5192;50.328;7.610;2022-10-17T04:43:45;13.10;99.90
10294;DHT22;5192;50.328;7.610;2022-10-17T04:46:15;13.10;99.90
10294;DHT22;5192;50.328;7.610;2022-10-17T04:48:42;13.10;99.90
10294;DHT22;5192;50.328;7.610;2022-10-17T04:51:12;13.10;99.90
10294;DHT22;5192;50.328;7.610;2022-10-17T04:53:41;13.00;99.90
10294;DHT22;5192;50.328;7.610;2022-10-17T04:56:14;13.00;99.90
10294;DHT22;5192;50.328;7.610;2022-10-17T04:58:42;13.00;99.90
10294;DHT22;5192;50.328;7.610;2022-10-17T05:01:18;13.10;99.90
10294;DHT22;5192;50.328;7.610;2022-10-17T05:03:45;12.90;99.90
10294;DHT22;5192;50.328;7.610;2022-10-17T05:06:15;13.00;99.90
10294;DHT22;5192;50.328;7.610;2022-10-17T05:08:41;12.90;99.90
10294;DHT22;5192;50.328;7.610;2022-10-17T05:11:26;13.00;99.90
10294;DHT22;5192;50.328;7.610;2022-10-17T05:13:57;13.00;99.90
10294;DHT22;5192;50.328;7.610;2022-10-17T05:16:25;13.00;99.90
10294;DHT22;5192;50.328;7.610;2022-10-17T05:18:54;13.30;99.90
10294;DHT22;5192;50.328;7.610;2022-10-17T05:21:24;13.40;99.90
10294;DHT22;5192;50.328;7.610;2022-10-17T05:23:50;13.60;99.90
10294;DHT22;5192;50.328;7.610;2022-10-17T05:26:18;13.70;99.90
10294;DHT22;5192;50.328;7.610;2022-10-17T05:28:45;13.70;99.90
10294;DHT22;5192;50.328;7.610;2022-10-17T05:31:11;14.10;99.90
10294;DHT22;5192;50.328;7.610;2022-10-17T05:33:37;14.30;99.90
10294;DHT22;5192;50.328;7.610;2022-10-17T05:36:04;14.30;99.90
10294;DHT22;5192;50.328;7.610;2022-10-17T05:38:31;14.40;99.90
10294;DHT22;5192;50.328;7.610;2022-10-17T05:40:58;14.60;99.90
10294;DHT22;5192;50.328;7.610;2022-10-17T05:43:25;14.80;99.90
10294;DHT22;5192;50.328;7.610;2022-10-17T05:45:52;14.90;99.90
10294;DHT22;5192;50.328;7.610;2022-10-17T05:48:19;15.00;99.90
10294;DHT22;5192;50.328;7.610;2022-10-17T05:50:45;15.10;99.90
10294;DHT22;5192;50.328;7.610;2022-10-17T05:53:10;15.10;99.90
10294;DHT22;5192;50.328;7.610;2022-10-17T05:55:36;15.20;99.90
10294;DHT22;5192;50.328;7.610;2022-10-17T05:58:03;15.20;99.90
10294;DHT22;5192;50.328;7.610;2022-10-17T06:00:28;15.20;99.90
10294;DHT22;5192;50.328;7.610;2022-10-17T06:02:54;15.40;99.90
10294;DHT22;5192;50.328;7.610;2022-10-17T06:05:21;15.40;99.90
10294;DHT22;5192;50.328;7.610;2022-10-17T06:07:49;15.40;99.90
10294;DHT22;5192;50.328;7.610;2022-10-17T06:10:18;15.60;99.90
10294;DHT22;5192;50.328;7.610;2022-10-17T06:12:44;15.70;99.90
10294;DHT22;5192;50.328;7.610;2022-10-17T06:15:11;15.70;99.90
10294;DHT22;5192;50.328;7.610;2022-10-17T06:17:38;15.70;99.90
10294;DHT22;5192;50.328;7.610;2022-10-17T06:20:05;15.70;99.90
10294;DHT22;5192;50.328;7.610;2022-10-17T06:22:31;15.70;99.90
10294;DHT22;5192;50.328;7.610;2022-10-17T06:24:57;15.70;99.90
10294;DHT22;5192;50.328;7.610;2022-10-17T06:27:25;15.80;99.90
10294;DHT22;5192;50.328;7.610;2022-10-17T06:29:51;15.80;99.90
10294;DHT22;5192;50.328;7.610;2022-10-17T06:32:17;15.80;99.90
10294;DHT22;5192;50.328;7.610;2022-10-17T06:34:42;15.80;99.90
10294;DHT22;5192;50.328;7.610;2022-10-17T06:37:08;15.90;99.90
10294;DHT22;5192;50.328;7.610;2022-10-17T06:39:35;15.90;99.90
10294;DHT22;5192;50.328;7.610;2022-10-17T06:42:01;15.90;99.90
10294;DHT22;5192;50.328;7.610;2022-10-17T06:44:27;16.00;99.90
10294;DHT22;5192;50.328;7.610;2022-10-17T06:47:00;16.00;99.90
10294;DHT22;5192;50.328;7.610;2022-10-17T06:49:27;16.10;99.90
10294;DHT22;5192;50.328;7.610;2022-10-17T06:51:52;16.20;99.90
10294;DHT22;5192;50.328;7.610;2022-10-17T06:54:18;16.20;99.90
10294;DHT22;5192;50.328;7.610;2022-10-17T06:56:44;16.30;99.90
10294;DHT22;5192;50.328;7.610;2022-10-17T06:59:10;16.50;99.90
10294;DHT22;5192;50.328;7.610;2022-10-17T07:01:35;16.70;99.90
10294;DHT22;5192;50.328;7.610;2022-10-17T07:04:02;16.70;99.90
10294;DHT22;5192;50.328;7.610;2022-10-17T07:06:30;16.90;99.90
10294;DHT22;5192;50.328;7.610;2022-10-17T07:08:56;16.90;99.90
10294;DHT22;5192;50.328;7.610;2022-10-17T07:11:22;17.00;99.90
10294;DHT22;5192;50.328;7.610;2022-10-17T07:13:48;17.20;99.90
10294;DHT22;5192;50.328;7.610;2022-10-17T07:16:15;17.30;99.90
10294;DHT22;5192;50.328;7.610;2022-10-17T07:18:47;17.50;99.90
10294;DHT22;5192;50.328;7.610;2022-10-17T07:21:14;17.50;99.90
10294;DHT22;5192;50.328;7.610;2022-10-17T07:23:41;17.60;99.90
10294;DHT22;5192;50.328;7.610;2022-10-17T07:26:11;17.60;99.90
10294;DHT22;5192;50.328;7.610;2022-10-17T07:28:41;17.60;99.90
10294;DHT22;5192;50.328;7.610;2022-10-17T07:31:16;17.70;99.90
10294;DHT22;5192;50.328;7.610;2022-10-17T07:33:44;17.70;99.90
10294;DHT22;5192;50.328;7.610;2022-10-17T07:36:11;17.80;99.90
10294;DHT22;5192;50.328;7.610;2022-10-17T07:38:41;17.80;99.90
10294;DHT22;5192;50.328;7.610;2022-10-17T07:41:10;17.90;99.90
10294;DHT22;5192;50.328;7.610;2022-10-17T07:43:37;18.00;99.90
10294;DHT22;5192;50.328;7.610;2022-10-17T07:46:05;18.00;99.90
10294;DHT22;5192;50.328;7.610;2022-10-17T07:48:32;18.00;99.90
10294;DHT22;5192;50.328;7.610;2022-10-17T07:51:01;18.10;99.90
10294;DHT22;5192;50.328;7.610;2022-10-17T07:53:28;18.20;99.90
10294;DHT22;5192;50.328;7.610;2022-10-17T07:55:53;18.30;99.90
10294;DHT22;5192;50.328;7.610;2022-10-17T07:58:20;18.30;99.90
10294;DHT22;5192;50.328;7.610;2022-10-17T08:00:45;18.30;99.90
10294;DHT22;5192;50.328;7.610;2022-10-17T08:03:16;18.40;99.90
10294;DHT22;5192;50.328;7.610;2022-10-17T08:05:42;18.50;99.90
10294;DHT22;5192;50.328;7.610;2022-10-17T08:08:09;18.60;99.90
10294;DHT22;5192;50.328;7.610;2022-10-17T08:10:34;18.60;99.90
10294;DHT22;5192;50.328;7.610;2022-10-17T08:13:01;18.70;99.90
10294;DHT22;5192;50.328;7.610;2022-10-17T08:15:28;18.70;99.90
10294;DHT22;5192;50.328;7.610;2022-10-17T08:17:55;18.70;99.90
10294;DHT22;5192;50.328;7.610;2022-10-17T08:20:22;18.70;99.90
10294;DHT22;5192;50.328;7.610;2022-10-17T08:22:52;18.70;99.90
10294;DHT22;5192;50.328;7.610;2022-10-17T08:25:19;18.80;99.90
10294;DHT22;5192;50.328;7.610;2022-10-17T08:27:46;18.80;99.90
10294;DHT22;5192;50.328;7.610;2022-10-17T08:30:13;18.90;99.90
10294;DHT22;5192;50.328;7.610;2022-10-17T08:32:41;18.90;97.00
10294;DHT22;5192;50.328;7.610;2022-10-17T08:35:07;19.00;99.90
10294;DHT22;5192;50.328;7.610;2022-10-17T08:37:33;19.00;99.90
10294;DHT22;5192;50.328;7.610;2022-10-17T08:39:58;19.10;97.70
10294;DHT22;5192;50.328;7.610;2022-10-17T08:43:03;19.10;92.90
10294;DHT22;5192;50.328;7.610;2022-10-17T08:45:47;19.20;91.60
10294;DHT22;5192;50.328;7.610;2022-10-17T08:48:19;19.30;89.70
10294;DHT22;5192;50.328;7.610;2022-10-17T08:50:50;19.40;87.60
10294;DHT22;5192;50.328;7.610;2022-10-17T08:53:29;19.50;83.40
10294;DHT22;5192;50.328;7.610;2022-10-17T08:55:56;19.60;77.00
10294;DHT22;5192;50.328;7.610;2022-10-17T08:58:28;19.70;77.50
10294;DHT22;5192;50.328;7.610;2022-10-17T09:06:20;20.10;67.70
10294;DHT22;5192;50.328;7.610;2022-10-17T09:14:10;20.30;63.40
10294;DHT22;5192;50.328;7.610;2022-10-17T09:19:34;20.50;49.80
10294;DHT22;5192;50.328;7.610;2022-10-17T09:22:05;20.60;46.20
10294;DHT22;5192;50.328;7.610;2022-10-17T09:24:43;20.70;42.20
10294;DHT22;5192;50.328;7.610;2022-10-17T09:27:34;20.90;42.00
10294;DHT22;5192;50.328;7.610;2022-10-17T09:32:58;21.00;38.00
10294;DHT22;5192;50.328;7.610;2022-10-17T09:35:27;21.20;36.60
10294;DHT22;5192;50.328;7.610;2022-10-17T09:37:54;21.30;32.50
10294;DHT22;5192;50.328;7.610;2022-10-17T09:40:30;21.30;33.50
10294;DHT22;5192;50.328;7.610;2022-10-17T09:42:56;21.30;32.30
10294;DHT22;5192;50.328;7.610;2022-10-17T09:45:24;21.40;30.90
10294;DHT22;5192;50.328;7.610;2022-10-17T09:48:21;21.50;28.30
10294;DHT22;5192;50.328;7.610;2022-10-17T09:50:49;21.60;27.20
10294;DHT22;5192;50.328;7.610;2022-10-17T09:53:29;21.70;25.30
10294;DHT22;5192;50.328;7.610;2022-10-17T09:56:01;21.80;26.00
10294;DHT22;5192;50.328;7.610;2022-10-17T09:58:59;21.80;24.80
10294;DHT22;5192;50.328;7.610;2022-10-17T10:01:27;21.80;25.70
10294;DHT22;5192;50.328;7.610;2022-10-17T10:04:14;21.80;23.40
10294;DHT22;5192;50.328;7.610;2022-10-17T10:07:00;21.80;24.60
10294;DHT22;5192;50.328;7.610;2022-10-17T10:09:29;21.90;27.30
10294;DHT22;5192;50.328;7.610;2022-10-17T10:11:57;22.00;24.60
10294;DHT22;5192;50.328;7.610;2022-10-17T10:16:54;22.20;23.10
10294;DHT22;5192;50.328;7.610;2022-10-17T10:24:23;22.40;17.90
10294;DHT22;5192;50.328;7.610;2022-10-17T10:26:50;22.20;20.90
10294;DHT22;5192;50.328;7.610;2022-10-17T10:29:30;22.10;20.70
10294;DHT22;5192;50.328;7.610;2022-10-17T10:32:25;22.20;20.30
10294;DHT22;5192;50.328;7.610;2022-10-17T10:34:52;22.30;20.00
10294;DHT22;5192;50.328;7.610;2022-10-17T10:37:18;22.00;21.60
10294;DHT22;5192;50.328;7.610;2022-10-17T10:39:48;22.00;20.20
10294;DHT22;5192;50.328;7.610;2022-10-17T10:42:29;22.10;23.60
10294;DHT22;5192;50.328;7.610;2022-10-17T10:48:35;22.30;21.60
10294;DHT22;5192;50.328;7.610;2022-10-17T10:51:13;22.30;22.20
10294;DHT22;5192;50.328;7.610;2022-10-17T10:56:41;22.60;17.60
10294;DHT22;5192;50.328;7.610;2022-10-17T11:01:45;22.50;19.20
10294;DHT22;5192;50.328;7.610;2022-10-17T11:07:14;22.80;20.80
10294;DHT22;5192;50.328;7.610;2022-10-17T11:10:22;22.90;16.60
10294;DHT22;5192;50.328;7.610;2022-10-17T11:12:56;22.90;12.40
10294;DHT22;5192;50.328;7.610;2022-10-17T11:15:49;22.90;7.10
10294;DHT22;5192;50.328;7.610;2022-10-17T11:18:23;22.80;8.70
10294;DHT22;5192;50.328;7.610;2022-10-17T11:26:12;22.80;8.60
10294;DHT22;5192;50.328;7.610;2022-10-17T11:28:38;22.90;6.70
10294;DHT22;5192;50.328;7.610;2022-10-17T11:31:09;23.10;5.60
10294;DHT22;5192;50.328;7.610;2022-10-17T11:33:50;23.20;5.50
10294;DHT22;5192;50.328;7.610;2022-10-17T11:36:19;23.20;5.20
10294;DHT22;5192;50.328;7.610;2022-10-17T11:38:50;23.50;4.70
10294;DHT22;5192;50.328;7.610;2022-10-17T11:41:36;23.70;2.90
10294;DHT22;5192;50.328;7.610;2022-10-17T11:49:49;23.60;3.00
10294;DHT22;5192;50.328;7.610;2022-10-17T11:55:02;23.10;8.00
10294;DHT22;5192;50.328;7.610;2022-10-17T11:58:10;23.20;7.30
10294;DHT22;5192;50.328;7.610;2022-10-17T12:06:18;22.90;11.80
10294;DHT22;5192;50.328;7.610;2022-10-17T12:08:54;23.00;11.00
10294;DHT22;5192;50.328;7.610;2022-10-17T12:13:54;23.00;13.50
10294;DHT22;5192;50.328;7.610;2022-10-17T12:19:12;22.70;15.30
10294;DHT22;5192;50.328;7.610;2022-10-17T12:21:58;22.90;15.60
10294;DHT22;5192;50.328;7.610;2022-10-17T12:24:36;23.20;14.90
10294;DHT22;5192;50.328;7.610;2022-10-17T12:27:42;23.30;11.20
10294;DHT22;5192;50.328;7.610;2022-10-17T12:30:25;23.50;9.50
10294;DHT22;5192;50.328;7.610;2022-10-17T12:33:19;23.40;11.80
10294;DHT22;5192;50.328;7.610;2022-10-17T12:55:11;25.10;1.00
10294;DHT22;5192;50.328;7.610;2022-10-17T12:58:00;25.60;1.00
10294;DHT22;5192;50.328;7.610;2022-10-17T13:00:54;26.20;1.00
10294;DHT22;5192;50.328;7.610;2022-10-17T13:03:25;25.20;1.00
10294;DHT22;5192;50.328;7.610;2022-10-17T13:05:56;25.30;1.00
10294;DHT22;5192;50.328;7.610;2022-10-17T13:08:42;25.40;1.00
10294;DHT22;5192;50.328;7.610;2022-10-17T13:11:09;25.90;1.00
10294;DHT22;5192;50.328;7.610;2022-10-17T13:13:41;25.30;1.00
10294;DHT22;5192;50.328;7.610;2022-10-17T13:16:10;25.10;1.00
10294;DHT22;5192;50.328;7.610;2022-10-17T13:18:52;24.50;1.00
10294;DHT22;5192;50.328;7.610;2022-10-17T13:21:19;24.40;1.00
10294;DHT22;5192;50.328;7.610;2022-10-17T13:23:44;24.80;1.00
10294;DHT22;5192;50.328;7.610;2022-10-17T13:26:25;24.70;1.00
10294;DHT22;5192;50.328;7.610;2022-10-17T13:29:05;24.70;1.00
10294;DHT22;5192;50.328;7.610;2022-10-17T13:31:36;24.00;1.00
10294;DHT22;5192;50.328;7.610;2022-10-17T13:34:05;23.80;3.60
10294;DHT22;5192;50.328;7.610;2022-10-17T13:36:32;23.70;5.50
10294;DHT22;5192;50.328;7.610;2022-10-17T13:39:03;23.80;4.50
10294;DHT22;5192;50.328;7.610;2022-10-17T13:41:31;23.60;7.20
10294;DHT22;5192;50.328;7.610;2022-10-17T13:44:03;23.60;7.10
10294;DHT22;5192;50.328;7.610;2022-10-17T13:46:33;23.60;5.70
10294;DHT22;5192;50.328;7.610;2022-10-17T13:51:50;23.40;9.70
10294;DHT22;5192;50.328;7.610;2022-10-17T13:54:40;23.00;11.60
10294;DHT22;5192;50.328;7.610;2022-10-17T13:59:43;23.10;14.30
10294;DHT22;5192;50.328;7.610;2022-10-17T14:02:31;22.90;16.20
10294;DHT22;5192;50.328;7.610;2022-10-17T14:05:10;22.90;14.60
10294;DHT22;5192;50.328;7.610;2022-10-17T14:07:49;22.70;17.80
10294;DHT22;5192;50.328;7.610;2022-10-17T14:10:36;22.70;18.00
10294;DHT22;5192;50.328;7.610;2022-10-17T14:13:05;22.80;18.90
10294;DHT22;5192;50.328;7.610;2022-10-17T14:15:36;22.80;18.20
10294;DHT22;5192;50.328;7.610;2022-10-17T14:18:05;22.60;19.50
10294;DHT22;5192;50.328;7.610;2022-10-17T14:20:33;22.60;20.90
10294;DHT22;5192;50.328;7.610;2022-10-17T14:23:00;22.50;20.50
10294;DHT22;5192;50.328;7.610;2022-10-17T14:25:38;22.50;20.30
10294;DHT22;5192;50.328;7.610;2022-10-17T14:28:15;22.50;24.30
10294;DHT22;5192;50.328;7.610;2022-10-17T14:30:48;22.40;22.80
10294;DHT22;5192;50.328;7.610;2022-10-17T14:33:29;22.40;22.80
10294;DHT22;5192;50.328;7.610;2022-10-17T14:35:58;22.40;23.10
10294;DHT22;5192;50.328;7.610;2022-10-17T14:38:27;22.50;23.00
10294;DHT22;5192;50.328;7.610;2022-10-17T14:41:01;22.40;23.40
10294;DHT22;5192;50.328;7.610;2022-10-17T14:43:30;22.70;24.10
10294;DHT22;5192;50.328;7.610;2022-10-17T14:46:00;22.60;22.10
10294;DHT22;5192;50.328;7.610;2022-10-17T14:48:27;22.50;22.00
10294;DHT22;5192;50.328;7.610;2022-10-17T14:51:12;22.60;26.30
10294;DHT22;5192;50.328;7.610;2022-10-17T14:53:42;22.60;24.10
10294;DHT22;5192;50.328;7.610;2022-10-17T14:56:33;22.40;25.90
10294;DHT22;5192;50.328;7.610;2022-10-17T14:58:59;22.50;28.70
10294;DHT22;5192;50.328;7.610;2022-10-17T15:01:27;22.50;27.50
10294;DHT22;5192;50.328;7.610;2022-10-17T15:03:53;22.40;26.00
10294;DHT22;5192;50.328;7.610;2022-10-17T15:06:21;22.40;28.70
10294;DHT22;5192;50.328;7.610;2022-10-17T15:08:48;22.40;27.10
10294;DHT22;5192;50.328;7.610;2022-10-17T15:11:14;22.30;27.90
10294;DHT22;5192;50.328;7.610;2022-10-17T15:13:39;22.30;28.30
10294;DHT22;5192;50.328;7.610;2022-10-17T15:16:25;22.20;28.90
10294;DHT22;5192;50.328;7.610;2022-10-17T15:18:52;22.20;28.60
10294;DHT22;5192;50.328;7.610;2022-10-17T15:21:23;22.10;29.70
10294;DHT22;5192;50.328;7.610;2022-10-17T15:23:49;22.00;31.60
10294;DHT22;5192;50.328;7.610;2022-10-17T15:26:19;22.00;35.10
10294;DHT22;5192;50.328;7.610;2022-10-17T15:28:46;22.00;33.60
10294;DHT22;5192;50.328;7.610;2022-10-17T15:31:14;22.00;34.20
10294;DHT22;5192;50.328;7.610;2022-10-17T15:33:40;21.90;35.70
10294;DHT22;5192;50.328;7.610;2022-10-17T15:36:26;21.80;42.00
10294;DHT22;5192;50.328;7.610;2022-10-17T15:38:56;21.70;45.50
10294;DHT22;5192;50.328;7.610;2022-10-17T15:41:24;21.70;45.90
10294;DHT22;5192;50.328;7.610;2022-10-17T15:43:50;21.60;50.00
10294;DHT22;5192;50.328;7.610;2022-10-17T15:46:23;21.50;47.70
10294;DHT22;5192;50.328;7.610;2022-10-17T15:48:50;21.50;48.80
10294;DHT22;5192;50.328;7.610;2022-10-17T15:51:16;21.40;49.30
10294;DHT22;5192;50.328;7.610;2022-10-17T15:53:42;21.40;54.80
10294;DHT22;5192;50.328;7.610;2022-10-17T15:56:21;21.40;51.90
10294;DHT22;5192;50.328;7.610;2022-10-17T15:58:47;21.40;45.20
10294;DHT22;5192;50.328;7.610;2022-10-17T16:01:21;21.40;46.80
10294;DHT22;5192;50.328;7.610;2022-10-17T16:03:48;21.30;48.50
10294;DHT22;5192;50.328;7.610;2022-10-17T16:06:18;21.30;49.30
10294;DHT22;5192;50.328;7.610;2022-10-17T16:08:45;21.30;51.00
10294;DHT22;5192;50.328;7.610;2022-10-17T16:11:28;21.30;52.30
10294;DHT22;5192;50.328;7.610;2022-10-17T16:13:57;21.20;53.20
10294;DHT22;5192;50.328;7.610;2022-10-17T16:16:23;21.20;53.70
10294;DHT22;5192;50.328;7.610;2022-10-17T16:18:48;21.10;57.00
10294;DHT22;5192;50.328;7.610;2022-10-17T16:21:15;21.10;56.80
10294;DHT22;5192;50.328;7.610;2022-10-17T16:23:41;21.10;56.10
10294;DHT22;5192;50.328;7.610;2022-10-17T16:26:07;21.00;60.50
10294;DHT22;5192;50.328;7.610;2022-10-17T16:28:34;20.90;61.70
10294;DHT22;5192;50.328;7.610;2022-10-17T16:31:00;20.90;65.70
10294;DHT22;5192;50.328;7.610;2022-10-17T16:33:25;20.90;66.30
10294;DHT22;5192;50.328;7.610;2022-10-17T16:35:51;20.80;63.80
10294;DHT22;5192;50.328;7.610;2022-10-17T16:38:17;20.80;61.30
10294;DHT22;5192;50.328;7.610;2022-10-17T16:40:42;20.80;62.40
10294;DHT22;5192;50.328;7.610;2022-10-17T16:43:12;20.80;67.90
10294;DHT22;5192;50.328;7.610;2022-10-17T16:45:38;20.80;67.50
10294;DHT22;5192;50.328;7.610;2022-10-17T16:48:04;20.70;71.70
10294;DHT22;5192;50.328;7.610;2022-10-17T16:50:30;20.60;76.20
10294;DHT22;5192;50.328;7.610;2022-10-17T16:53:00;20.60;82.70
10294;DHT22;5192;50.328;7.610;2022-10-17T16:55:25;20.50;89.90
10294;DHT22;5192;50.328;7.610;2022-10-17T16:57:51;20.50;96.50
10294;DHT22;5192;50.328;7.610;2022-10-17T17:00:17;20.40;99.90
10294;DHT22;5192;50.328;7.610;2022-10-17T17:02:43;20.30;99.90
10294;DHT22;5192;50.328;7.610;2022-10-17T17:05:11;20.10;99.90
10294;DHT22;5192;50.328;7.610;2022-10-17T17:07:37;20.10;99.90
10294;DHT22;5192;50.328;7.610;2022-10-17T17:10:03;19.90;99.90
10294;DHT22;5192;50.328;7.610;2022-10-17T17:12:32;19.80;99.90
10294;DHT22;5192;50.328;7.610;2022-10-17T17:14:57;19.70;99.90
10294;DHT22;5192;50.328;7.610;2022-10-17T17:17:23;19.60;99.90
10294;DHT22;5192;50.328;7.610;2022-10-17T17:19:49;19.60;99.90
10294;DHT22;5192;50.328;7.610;2022-10-17T17:22:14;19.50;99.90
10294;DHT22;5192;50.328;7.610;2022-10-17T17:24:40;19.40;99.90
10294;DHT22;5192;50.328;7.610;2022-10-17T17:27:05;19.30;99.90
10294;DHT22;5192;50.328;7.610;2022-10-17T17:29:31;19.20;99.90
10294;DHT22;5192;50.328;7.610;2022-10-17T17:31:57;19.10;99.90
10294;DHT22;5192;50.328;7.610;2022-10-17T17:34:23;19.10;99.90
10294;DHT22;5192;50.328;7.610;2022-10-17T17:36:48;19.00;99.90
10294;DHT22;5192;50.328;7.610;2022-10-17T17:39:14;18.90;99.90
10294;DHT22;5192;50.328;7.610;2022-10-17T17:41:41;18.90;99.90
10294;DHT22;5192;50.328;7.610;2022-10-17T17:44:11;18.90;99.90
10294;DHT22;5192;50.328;7.610;2022-10-17T17:46:36;18.90;99.90
10294;DHT22;5192;50.328;7.610;2022-10-17T17:49:02;18.80;99.90
10294;DHT22;5192;50.328;7.610;2022-10-17T17:51:29;18.80;99.90
10294;DHT22;5192;50.328;7.610;2022-10-17T17:53:56;18.80;99.90
10294;DHT22;5192;50.328;7.610;2022-10-17T17:56:28;18.70;99.90